This is the latest recevied weather packets stored in our database for station/object IZ2MHJ-3. If no packets are shown the sender has not sent any weather packets the latest 10 day(s).
| Time | Temp. | Humidity | Pressure | Rain* | Wind** | Luminosity | Snow |
|---|---|---|---|---|---|---|---|
| 1787585428 | 33.33° C | 40% | 1015.8 hPa | - | - | - | - |
| 1787584227 | 33.89° C | 40% | 1016 hPa | - | - | - | - |
| 1787583027 | 32.78° C | 42% | 1016.5 hPa | - | - | - | - |
| 1787581827 | 32.22° C | 43% | 1016.6 hPa | - | - | - | - |
| 1787580626 | 33.89° C | 40% | 1016.6 hPa | - | - | - | - |
| 1787579426 | 33.33° C | 42% | 1016.9 hPa | - | - | - | - |
| 1787578226 | 33.33° C | 42% | 1017.1 hPa | - | - | - | - |
| 1787577025 | 34.44° C | 41% | 1017.1 hPa | - | - | - | - |
| 1787575825 | 32.78° C | 43% | 1017.6 hPa | - | - | - | - |
| 1787574625 | 33.89° C | 41% | 1017.8 hPa | - | - | - | - |
| 1787573424 | 35° C | 40% | 1017.8 hPa | - | - | - | - |
| 1787572224 | 30.56° C | 48% | 1018.3 hPa | - | - | - | - |
| 1787571024 | 31.67° C | 46% | 1018.3 hPa | - | - | - | - |
| 1787569823 | 34.44° C | 42% | 1018.2 hPa | - | - | - | - |
| 1787568623 | 30.56° C | 51% | 1018.7 hPa | - | - | - | - |
| 1787567423 | 31.11° C | 48% | 1018.8 hPa | - | - | - | - |
| 1787566222 | 32.22° C | 46% | 1018.9 hPa | - | - | - | - |
| 1787565022 | 28.89° C | 52% | 1019.2 hPa | - | - | - | - |
| 1787563822 | 30.56° C | 53% | 1019.1 hPa | - | - | - | - |
| 1787562622 | 30° C | 50% | 1019.2 hPa | - | - | - | - |
| 1787561421 | 28.89° C | 55% | 1019.4 hPa | - | - | - | - |
| 1787560221 | 30° C | 53% | 1019.2 hPa | - | - | - | - |
| 1787559021 | 32.22° C | 48% | 1019.1 hPa | - | - | - | - |
| 1787557820 | 31.67° C | 49% | 1019.1 hPa | - | - | - | - |
| 1787556620 | 30.56° C | 51% | 1019.1 hPa | - | - | - | - |
* Rain since midnight (hover to see other rain measurements)
** Current wind speed in m/s (hover to see current wind gust speed)